Terminal Aerodrome Forecast
Issued by NWS Charleston, WV

Current Version | Previous Version | Text Only | Print | Product List | Glossary Off
Versions: 1 2 3 4 5 6 7 8 9 10 11 12 13 14 15 16 17 18 19 20 21 22 23 24 25

013
FTUS41 KRLX 181130
TAFEKN
TAF
KEKN 181130Z 1812/1912 10005KT P6SM BKN025 BKN090
     FM181400 14004KT P6SM BKN090
     FM181700 13009KT P6SM SHRA OVC035
     FM190300 12009KT 5SM -SHRA OVC025=

USA.gov is the U.S. government's official web portal to all federal, state and local government web resources and services.